Time;durP1;ratioP1;P1;durP2;ratioP2;P2;SDS_P1;SDS_P2;PMS_P1;PMS_P2;Temp;Humidity;BMP_temperature;BMP_pressure;BME280_temperature;BME280_humidity;BME280_pressure;Samples;Min_cycle;Max_cycle;Signal;HPM_P1;HPM_P2
2021/10/14 00:02:24;;;;;;;;;25.25;25.25;11.00;57.50;;;;;;4861851;29;8820;-68
2021/10/14 00:04:49;;;;;;;;;15.50;15.50;11.20;57.70;;;;;;4861821;29;8770;-67
2021/10/14 00:07:15;;;;;;;;;23.25;23.25;11.30;57.30;;;;;;4861723;29;8918;-67
2021/10/14 00:09:41;;;;;;;;;26.75;26.75;11.30;57.20;;;;;;4861721;29;9052;-67
2021/10/14 00:12:07;;;;;;;;;31.00;30.75;11.10;57.40;;;;;;4861564;29;8858;-67
2021/10/14 00:14:33;;;;;;;;;27.00;27.00;11.20;57.10;;;;;;4861716;29;8797;-67
2021/10/14 00:16:59;;;;;;;;;22.75;22.75;11.10;57.50;;;;;;4861723;29;8805;-67
2021/10/14 00:19:25;;;;;;;;;26.50;26.25;11.20;57.10;;;;;;4861672;29;8800;-67
2021/10/14 00:21:50;;;;;;;;;21.50;21.50;11.20;57.10;;;;;;4861848;29;8813;-68
2021/10/14 00:24:16;;;;;;;;;25.00;25.00;11.20;56.60;;;;;;4861619;29;8782;-67
2021/10/14 00:26:42;;;;;;;;;22.50;22.50;11.30;56.90;;;;;;4861520;29;8813;-67
2021/10/14 00:29:08;;;;;;;;;23.50;23.50;11.30;56.70;;;;;;4861607;29;8774;-67
2021/10/14 00:31:34;;;;;;;;;23.25;23.25;11.40;56.50;;;;;;4861294;29;8833;-67
2021/10/14 00:33:59;;;;;;;;;25.00;25.00;11.30;56.60;;;;;;4864062;29;8809;-67
2021/10/14 00:36:25;;;;;;;;;28.25;27.75;11.30;56.30;;;;;;4865301;29;8789;-67
2021/10/14 00:38:51;;;;;;;;;22.25;22.25;11.30;56.60;;;;;;4865010;29;9611;-67
2021/10/14 00:41:17;;;;;;;;;29.50;29.50;11.30;56.70;;;;;;4863898;29;8849;-67
2021/10/14 00:43:43;;;;;;;;;26.50;26.50;11.30;56.50;;;;;;4865041;29;8794;-67
2021/10/14 00:46:18;;;;;;;;;29.75;29.75;11.50;55.90;;;;;;4865161;29;8785;-68
2021/10/14 00:48:44;;;;;;;;;37.00;36.00;11.50;55.90;;;;;;4864855;29;8900;-67
2021/10/14 00:51:10;;;;;;;;;30.75;30.75;11.30;55.70;;;;;;4864732;29;8833;-67
2021/10/14 00:53:38;;;;;;;;;31.25;31.25;11.50;56.30;;;;;;4864831;29;8857;-67
2021/10/14 00:56:08;;;;;;;;;30.75;29.25;11.40;55.80;;;;;;4864744;29;8786;-67
2021/10/14 00:58:35;;;;;;;;;37.50;37.00;11.50;55.50;;;;;;4864954;29;8884;-67
2021/10/14 01:01:02;;;;;;;;;33.25;33.25;11.50;55.80;;;;;;4864844;29;8833;-67
2021/10/14 01:03:28;;;;;;;;;32.00;32.00;11.60;55.30;;;;;;4864793;29;8884;-67
2021/10/14 01:05:55;;;;;;;;;33.00;33.00;11.60;55.20;;;;;;4865134;29;8900;-67
2021/10/14 01:08:21;;;;;;;;;27.00;27.00;11.70;55.00;;;;;;4864280;29;8864;-68
2021/10/14 01:10:47;;;;;;;;;31.50;31.50;11.80;54.90;;;;;;4863551;29;8889;-66
2021/10/14 01:13:13;;;;;;;;;32.50;32.50;11.80;54.50;;;;;;4864577;29;8821;-67
2021/10/14 01:15:39;;;;;;;;;27.50;27.50;11.80;54.40;;;;;;4865161;29;9493;-69
2021/10/14 01:18:05;;;;;;;;;32.75;32.75;11.80;54.20;;;;;;4864412;29;8809;-69
2021/10/14 01:20:30;;;;;;;;;28.00;28.00;11.80;54.00;;;;;;4865394;29;8841;-68
2021/10/14 01:22:57;;;;;;;;;34.00;34.00;11.90;54.00;;;;;;4864780;29;8801;-68
2021/10/14 01:25:24;;;;;;;;;35.75;35.25;11.90;54.00;;;;;;4863939;29;8894;-68
2021/10/14 01:27:52;;;;;;;;;32.00;32.00;11.70;53.90;;;;;;4864152;29;8801;-68
2021/10/14 01:30:18;;;;;;;;;31.50;31.50;11.70;54.40;;;;;;4864270;29;8794;-68
2021/10/14 01:32:47;;;;;;;;;31.00;31.00;11.70;54.10;;;;;;4864377;29;8781;-69
2021/10/14 01:35:13;;;;;;;;;33.50;33.50;11.70;53.90;;;;;;4864577;29;8885;-69
2021/10/14 01:37:39;;;;;;;;;35.50;35.50;11.80;54.80;;;;;;4864060;29;8805;-68
2021/10/14 01:40:05;;;;;;;;;39.00;36.25;11.90;53.70;;;;;;4864507;29;8834;-69
2021/10/14 01:42:32;;;;;;;;;33.75;33.75;12.00;53.30;;;;;;4864540;29;8836;-70
2021/10/14 01:45:01;;;;;;;;;31.75;31.75;11.80;53.00;;;;;;4863594;29;8832;-68
2021/10/14 01:47:35;;;;;;;;;35.25;34.25;11.70;53.30;;;;;;4864012;29;8813;-68
2021/10/14 01:50:00;;;;;;;;;33.50;33.50;11.80;53.40;;;;;;4864090;29;8886;-68
2021/10/14 01:52:26;;;;;;;;;28.00;28.00;11.50;53.70;;;;;;4863888;29;8967;-69
2021/10/14 01:54:52;;;;;;;;;28.75;28.75;11.40;54.10;;;;;;4863860;29;8815;-69
2021/10/14 01:57:18;;;;;;;;;29.50;29.00;11.30;54.60;;;;;;4863643;29;8836;-68
2021/10/14 01:59:44;;;;;;;;;31.50;31.50;11.40;54.40;;;;;;4863638;29;8782;-68
2021/10/14 02:02:09;;;;;;;;;27.75;27.50;11.20;54.80;;;;;;4863588;29;8805;-68
2021/10/14 02:04:35;;;;;;;;;28.00;28.00;11.20;54.80;;;;;;4863603;29;8774;-68
2021/10/14 02:07:01;;;;;;;;;29.50;29.50;11.20;54.90;;;;;;4863452;29;8829;-68
2021/10/14 02:09:27;;;;;;;;;27.50;27.50;11.00;55.40;;;;;;4863287;29;8794;-68
2021/10/14 02:11:52;;;;;;;;;24.75;24.75;10.90;55.40;;;;;;4863129;29;8849;-68
2021/10/14 02:14:18;;;;;;;;;27.00;26.50;10.40;55.60;;;;;;4863544;29;8824;-68
2021/10/14 02:16:44;;;;;;;;;24.25;24.25;10.30;56.80;;;;;;4863386;29;9425;-68
2021/10/14 02:19:10;;;;;;;;;24.00;23.75;10.20;57.40;;;;;;4863361;29;9409;-68
2021/10/14 02:21:36;;;;;;;;;20.25;20.25;10.30;57.40;;;;;;4863377;29;8819;-68
2021/10/14 02:24:02;;;;;;;;;24.50;24.50;10.40;56.90;;;;;;4863125;29;8821;-67
2021/10/14 02:26:28;;;;;;;;;24.00;24.00;10.50;56.90;;;;;;4863439;29;9496;-66
2021/10/14 02:28:54;;;;;;;;;23.00;23.00;10.50;56.70;;;;;;4863369;29;8871;-67
2021/10/14 02:31:19;;;;;;;;;26.25;26.25;10.60;56.60;;;;;;4863635;29;8833;-66
2021/10/14 02:33:45;;;;;;;;;25.00;25.00;10.70;56.10;;;;;;4863560;29;8816;-66
2021/10/14 02:36:11;;;;;;;;;20.00;20.00;10.70;55.90;;;;;;4863320;29;8797;-67
2021/10/14 02:38:37;;;;;;;;;26.25;26.25;10.50;56.00;;;;;;4863410;29;8913;-68
2021/10/14 02:41:03;;;;;;;;;22.25;22.25;10.60;56.50;;;;;;4863676;29;8822;-67
2021/10/14 02:43:30;;;;;;;;;23.75;23.75;10.40;56.50;;;;;;4863231;29;8812;-68
2021/10/14 02:45:56;;;;;;;;;24.50;24.50;10.50;56.50;;;;;;4862794;29;8797;-67
2021/10/14 02:48:21;;;;;;;;;24.75;24.75;10.40;56.30;;;;;;4862708;29;8802;-67
2021/10/14 02:50:47;;;;;;;;;27.25;27.25;10.50;56.50;;;;;;4862999;29;8868;-67
2021/10/14 02:53:13;;;;;;;;;25.00;25.00;10.50;56.90;;;;;;4862703;29;8789;-68
2021/10/14 02:55:39;;;;;;;;;25.25;25.25;10.60;56.80;;;;;;4862351;29;9445;-68
2021/10/14 02:58:05;;;;;;;;;24.50;24.50;10.70;56.20;;;;;;4862211;29;8790;-68
2021/10/14 03:00:30;;;;;;;;;28.00;28.00;10.60;56.40;;;;;;4862552;29;8798;-68
2021/10/14 03:02:56;;;;;;;;;26.75;26.75;10.60;56.60;;;;;;4862514;29;8811;-67
2021/10/14 03:05:22;;;;;;;;;23.25;23.25;10.70;56.20;;;;;;4862414;29;8801;-67
2021/10/14 03:07:48;;;;;;;;;24.00;24.00;10.80;56.10;;;;;;4862510;29;8797;-68
2021/10/14 03:10:14;;;;;;;;;19.00;19.00;11.00;55.80;;;;;;4862429;29;9589;-68
2021/10/14 03:12:39;;;;;;;;;26.25;26.25;11.10;55.30;;;;;;4862178;29;8829;-67
2021/10/14 03:15:06;;;;;;;;;28.75;28.75;11.00;55.20;;;;;;4862307;29;8797;-67
2021/10/14 03:17:33;;;;;;;;;27.75;27.75;11.00;55.20;;;;;;4862544;29;8785;-68
2021/10/14 03:19:58;;;;;;;;;28.00;28.00;11.10;55.00;;;;;;4862226;29;8785;-67
2021/10/14 03:22:24;;;;;;;;;22.67;22.67;11.10;54.70;;;;;;4862443;29;8824;-67
2021/10/14 03:24:50;;;;;;;;;24.50;24.50;11.10;54.70;;;;;;4862141;29;8805;-67
2021/10/14 03:27:16;;;;;;;;;27.00;27.00;11.30;54.50;;;;;;4862110;29;8801;-67
2021/10/14 03:29:42;;;;;;;;;25.50;25.50;11.20;54.10;;;;;;4862150;29;8806;-67
2021/10/14 03:32:07;;;;;;;;;25.50;25.50;11.20;54.10;;;;;;4862358;29;8940;-68
2021/10/14 03:34:33;;;;;;;;;29.25;29.00;11.20;54.10;;;;;;4862007;29;9495;-68
2021/10/14 03:36:59;;;;;;;;;33.25;32.75;11.30;53.70;;;;;;4862354;29;8846;-68
2021/10/14 03:39:25;;;;;;;;;32.50;32.50;11.30;53.90;;;;;;4861733;29;9437;-67
2021/10/14 03:41:51;;;;;;;;;26.50;26.50;11.30;53.70;;;;;;4861935;29;8868;-68
2021/10/14 03:44:17;;;;;;;;;33.50;33.50;11.40;53.80;;;;;;4862276;29;9385;-67
2021/10/14 03:46:44;;;;;;;;;29.00;29.00;11.40;53.70;;;;;;4861917;29;8816;-68
2021/10/14 03:49:10;;;;;;;;;38.50;35.75;11.30;53.90;;;;;;4861880;29;8788;-67
2021/10/14 03:51:36;;;;;;;;;34.50;34.00;11.30;53.70;;;;;;4862069;29;8822;-67
2021/10/14 03:54:02;;;;;;;;;37.00;37.00;11.10;54.00;;;;;;4861797;29;8832;-68
2021/10/14 03:56:28;;;;;;;;;27.75;27.75;11.00;54.40;;;;;;4862128;29;9464;-67
2021/10/14 03:58:53;;;;;;;;;31.75;31.75;10.70;54.50;;;;;;4861823;29;8881;-68
2021/10/14 04:01:19;;;;;;;;;24.00;24.00;10.70;55.50;;;;;;4862053;29;8944;-67
2021/10/14 04:03:45;;;;;;;;;24.00;24.00;10.70;55.40;;;;;;4862046;29;8790;-67
2021/10/14 04:06:11;;;;;;;;;21.75;21.75;10.40;55.60;;;;;;4861828;29;8798;-67
2021/10/14 04:08:37;;;;;;;;;22.00;22.00;10.00;56.50;;;;;;4863812;29;8828;-67
2021/10/14 04:11:03;;;;;;;;;21.00;21.00;10.20;56.60;;;;;;4865410;29;8889;-69
2021/10/14 04:13:30;;;;;;;;;21.00;21.00;10.00;57.20;;;;;;4865496;29;8824;-67
2021/10/14 04:15:55;;;;;;;;;21.25;21.25;10.20;57.30;;;;;;4865345;29;8921;-68
2021/10/14 04:18:21;;;;;;;;;16.25;16.25;10.20;56.60;;;;;;4865398;29;8935;-68
2021/10/14 04:20:47;;;;;;;;;22.75;22.75;10.00;56.90;;;;;;4865596;29;8840;-68
2021/10/14 04:23:15;;;;;;;;;22.50;22.50;10.00;57.30;;;;;;4865364;29;8789;-68
2021/10/14 04:25:41;;;;;;;;;26.50;26.50;9.90;57.40;;;;;;4865279;29;8805;-69
2021/10/14 04:28:07;;;;;;;;;20.75;20.75;10.10;57.40;;;;;;4865436;29;8836;-69
2021/10/14 04:30:33;;;;;;;;;23.75;23.75;10.30;57.00;;;;;;4865367;29;8840;-67
2021/10/14 04:33:00;;;;;;;;;27.00;27.00;10.40;56.50;;;;;;4865065;29;8832;-67
2021/10/14 04:35:25;;;;;;;;;30.50;30.50;10.60;56.10;;;;;;4865319;29;8794;-68
2021/10/14 04:37:51;;;;;;;;;36.00;36.00;10.60;55.70;;;;;;4865055;29;8868;-69
2021/10/14 04:40:17;;;;;;;;;48.25;43.75;10.80;55.40;;;;;;4864881;29;9017;-67
2021/10/14 04:42:43;;;;;;;;;65.25;54.50;10.80;55.40;;;;;;4865208;29;8785;-68
2021/10/14 04:45:09;;;;;;;;;64.25;54.25;10.90;55.00;;;;;;4864898;29;8802;-68
2021/10/14 04:47:36;;;;;;;;;54.00;46.25;10.80;55.20;;;;;;4864831;29;8805;-67
2021/10/14 04:50:04;;;;;;;;;41.00;38.25;10.70;55.40;;;;;;4864920;29;8831;-69
2021/10/14 04:52:30;;;;;;;;;46.00;42.00;10.70;55.40;;;;;;4863663;29;8840;-68
2021/10/14 04:54:56;;;;;;;;;38.25;38.00;10.70;55.70;;;;;;4864600;29;8812;-67
2021/10/14 04:57:22;;;;;;;;;41.00;40.00;10.60;56.10;;;;;;4864644;29;8821;-68
2021/10/14 04:59:47;;;;;;;;;41.00;37.00;10.60;56.20;;;;;;4864823;29;8912;-67
2021/10/14 05:02:13;;;;;;;;;42.50;41.00;10.70;55.80;;;;;;4864573;29;9452;-67
2021/10/14 05:04:39;;;;;;;;;36.00;35.50;10.70;55.40;;;;;;4864570;29;8865;-68
2021/10/14 05:07:05;;;;;;;;;38.75;37.25;10.70;55.40;;;;;;4864736;29;8793;-68
2021/10/14 05:09:31;;;;;;;;;39.25;38.50;10.70;55.70;;;;;;4864385;29;8922;-68
2021/10/14 05:11:56;;;;;;;;;44.00;40.00;10.60;56.00;;;;;;4864023;29;8883;-68
2021/10/14 05:14:22;;;;;;;;;39.50;38.50;10.70;55.80;;;;;;4864343;29;8820;-68
2021/10/14 05:16:48;;;;;;;;;39.25;38.25;10.80;55.60;;;;;;4864530;29;8856;-68
2021/10/14 05:22:36;;;;;;;;;38.00;37.00;10.60;55.50;;;;;;4864085;29;8864;-68
2021/10/14 05:25:02;;;;;;;;;34.25;34.25;10.50;56.00;;;;;;4864155;29;8892;-67
2021/10/14 05:27:27;;;;;;;;;41.00;39.00;10.50;56.20;;;;;;4864082;29;8843;-68
2021/10/14 05:29:53;;;;;;;;;29.00;29.00;10.60;56.00;;;;;;4864353;29;8813;-66
2021/10/14 05:32:19;;;;;;;;;35.25;35.25;10.70;55.40;;;;;;4863947;29;8970;-67
2021/10/14 05:34:45;;;;;;;;;37.00;37.00;10.60;55.50;;;;;;4863984;29;8819;-67
2021/10/14 05:37:10;;;;;;;;;34.25;34.25;10.80;55.40;;;;;;4864168;29;8810;-67
2021/10/14 05:39:36;;;;;;;;;36.25;36.25;10.80;55.30;;;;;;4863904;29;8785;-68
2021/10/14 05:42:02;;;;;;;;;34.75;34.75;10.60;55.30;;;;;;4864169;29;8892;-68
2021/10/14 05:44:28;;;;;;;;;34.00;34.00;10.90;55.50;;;;;;4863805;29;8789;-69
2021/10/14 05:46:54;;;;;;;;;40.00;39.00;11.00;55.30;;;;;;4863803;29;8972;-66
2021/10/14 05:49:19;;;;;;;;;40.75;38.75;11.00;55.20;;;;;;4863868;29;8963;-69
2021/10/14 05:51:45;;;;;;;;;42.25;40.00;11.10;55.10;;;;;;4863616;29;9557;-68
2021/10/14 05:54:11;;;;;;;;;42.50;39.50;11.10;54.70;;;;;;4863638;29;8782;-69
2021/10/14 05:56:37;;;;;;;;;45.25;41.25;11.20;54.80;;;;;;4863763;29;8892;-69
2021/10/14 05:59:02;;;;;;;;;41.75;39.25;11.20;54.60;;;;;;4863263;29;8794;-66
2021/10/14 06:01:28;;;;;;;;;46.50;41.50;11.30;54.80;;;;;;4863370;29;8889;-67
2021/10/14 06:03:55;;;;;;;;;39.25;37.00;11.30;54.30;;;;;;4863330;29;9393;-67
2021/10/14 06:06:21;;;;;;;;;42.75;39.75;11.40;54.30;;;;;;4863580;29;8817;-68
2021/10/14 06:08:47;;;;;;;;;35.00;34.75;11.60;54.40;;;;;;4863357;29;8801;-67
2021/10/14 06:11:13;;;;;;;;;35.00;35.00;11.40;54.30;;;;;;4863248;29;8861;-68
2021/10/14 06:13:39;;;;;;;;;29.25;29.25;11.00;55.50;;;;;;4863353;29;8806;-67
2021/10/14 06:16:06;;;;;;;;;29.00;29.00;11.20;55.30;;;;;;4863300;29;8841;-67
2021/10/14 06:18:32;;;;;;;;;34.25;33.25;11.30;55.10;;;;;;4863400;29;8813;-68
2021/10/14 06:20:59;;;;;;;;;30.50;30.50;11.40;55.20;;;;;;4862796;29;8827;-68
2021/10/14 06:23:25;;;;;;;;;25.75;25.25;11.20;55.10;;;;;;4861746;29;8822;-68
2021/10/14 06:25:50;;;;;;;;;31.00;31.00;11.20;55.60;;;;;;4863145;29;8827;-68
2021/10/14 06:28:16;;;;;;;;;31.50;30.25;11.30;55.90;;;;;;4863081;29;8832;-69
2021/10/14 06:30:42;;;;;;;;;28.00;28.00;11.30;55.70;;;;;;4863009;29;8853;-69
2021/10/14 06:33:08;;;;;;;;;29.75;29.75;10.90;56.00;;;;;;4862631;29;8805;-67
2021/10/14 06:35:34;;;;;;;;;26.75;26.75;10.80;57.00;;;;;;4863142;29;8794;-67
2021/10/14 06:38:00;;;;;;;;;32.25;32.25;11.20;56.80;;;;;;4862168;29;8790;-68
2021/10/14 06:40:26;;;;;;;;;28.25;28.25;11.00;56.50;;;;;;4862814;29;8841;-68
2021/10/14 06:42:53;;;;;;;;;27.50;27.25;11.20;56.70;;;;;;4862526;29;8835;-67
2021/10/14 06:45:19;;;;;;;;;30.75;30.75;11.40;55.80;;;;;;4862892;29;8816;-68
2021/10/14 06:47:45;;;;;;;;;24.50;24.50;11.50;55.80;;;;;;4862044;29;8831;-67
2021/10/14 06:50:11;;;;;;;;;27.00;27.00;11.50;55.80;;;;;;4862235;29;8798;-67
2021/10/14 06:52:37;;;;;;;;;25.25;25.25;11.50;55.60;;;;;;4862028;29;9185;-67
2021/10/14 06:55:04;;;;;;;;;24.00;24.00;11.50;55.80;;;;;;4862825;29;8802;-67
2021/10/14 06:57:30;;;;;;;;;28.75;28.75;11.60;55.10;;;;;;4861893;29;8793;-66
2021/10/14 06:59:55;;;;;;;;;22.00;20.50;11.70;55.20;;;;;;4862405;29;8824;-66
2021/10/14 07:02:21;;;;;;;;;18.00;18.00;11.70;55.30;;;;;;4862360;29;8825;-67
2021/10/14 07:04:47;;;;;;;;;24.67;24.67;11.60;55.30;;;;;;4861068;29;8813;-68
2021/10/14 07:07:13;;;;;;;;;27.75;27.75;11.60;55.30;;;;;;4862000;29;8821;-67
2021/10/14 07:09:39;;;;;;;;;25.67;25.67;11.70;55.40;;;;;;4861942;29;8833;-68
2021/10/14 07:12:11;;;;;;;;;22.50;22.00;12.00;54.60;;;;;;4861837;29;8883;-68
2021/10/14 07:14:38;;;;;;;;;27.00;27.00;12.20;53.50;;;;;;4861951;29;8805;-67
2021/10/14 07:17:04;;;;;;;;;26.50;26.50;12.60;53.00;;;;;;4862457;29;8809;-67
2021/10/14 07:19:30;;;;;;;;;29.25;29.25;12.80;52.00;;;;;;4862179;29;8810;-67
2021/10/14 07:21:56;;;;;;;;;24.00;24.00;13.00;51.20;;;;;;4862445;29;9520;-66
2021/10/14 07:24:24;;;;;;;;;28.00;28.00;12.60;51.20;;;;;;4861959;29;8813;-67
2021/10/14 07:26:50;;;;;;;;;35.25;34.75;12.50;51.70;;;;;;4862059;29;8844;-68
2021/10/14 07:29:17;;;;;;;;;34.00;33.75;12.70;52.20;;;;;;4861980;29;8817;-69
2021/10/14 07:31:43;;;;;;;;;30.50;30.50;12.70;52.00;;;;;;4861199;29;9511;-68
2021/10/14 07:34:08;;;;;;;;;29.00;29.00;12.40;52.50;;;;;;4862016;29;8805;-67
2021/10/14 07:36:35;;;;;;;;;35.75;35.00;12.60;52.70;;;;;;4861902;29;8816;-69
2021/10/14 07:39:02;;;;;;;;;37.25;35.50;12.30;53.30;;;;;;4862100;29;9548;-69
2021/10/14 07:41:29;;;;;;;;;33.00;33.00;12.80;53.50;;;;;;4862114;29;8826;-69
2021/10/14 07:43:55;;;;;;;;;43.00;39.25;12.80;53.10;;;;;;4861362;29;8786;-69
2021/10/14 07:46:21;;;;;;;;;31.25;31.25;13.20;52.70;;;;;;4861949;29;8801;-69
2021/10/14 07:48:47;;;;;;;;;25.00;25.00;12.90;51.70;;;;;;4861705;29;8794;-71
2021/10/14 07:51:14;;;;;;;;;30.00;30.00;12.80;52.10;;;;;;4861007;29;8825;-66
2021/10/14 07:53:40;;;;;;;;;32.75;32.75;13.10;52.60;;;;;;4861760;29;8812;-65
2021/10/14 07:56:06;;;;;;;;;35.50;34.50;13.60;52.00;;;;;;4861831;29;9627;-69
2021/10/14 07:58:32;;;;;;;;;32.33;32.33;13.80;51.20;;;;;;4861249;29;8935;-70
2021/10/14 08:00:58;;;;;;;;;27.33;27.33;13.80;50.30;;;;;;4861760;29;8877;-66
2021/10/14 08:03:24;;;;;;;;;27.33;27.33;14.10;49.90;;;;;;4861315;29;8802;-69
2021/10/14 08:05:50;;;;;;;;;31.00;31.00;14.00;49.20;;;;;;4860722;29;8836;-68
2021/10/14 08:08:16;;;;;;;;;28.33;28.00;13.80;50.10;;;;;;4861386;29;8782;-68
2021/10/14 08:10:42;;;;;;;;;18.33;18.33;13.80;50.20;;;;;;4860695;29;8987;-69
2021/10/14 08:13:14;;;;;;;;;27.67;27.67;13.80;50.20;;;;;;4861305;29;8802;-68
2021/10/14 08:15:50;;;;;;;;;31.00;31.00;13.90;50.40;;;;;;4860426;29;8797;-67
2021/10/14 08:18:21;;;;;;;;;30.33;30.33;13.90;50.30;;;;;;4861738;29;8798;-70
2021/10/14 08:20:48;;;;;;;;;30.00;30.00;14.10;50.40;;;;;;4861478;29;8797;-73
2021/10/14 08:23:14;;;;;;;;;28.33;28.33;13.70;50.50;;;;;;4861668;29;8829;-70
2021/10/14 08:25:40;;;;;;;;;31.67;31.67;13.80;51.10;;;;;;4861592;29;8808;-68
2021/10/14 08:28:06;;;;;;;;;33.00;32.75;13.70;50.90;;;;;;4861819;29;8821;-67
2021/10/14 08:30:32;;;;;;;;;45.25;39.25;14.10;50.90;;;;;;4861368;29;8810;-69
2021/10/14 08:32:57;;;;;;;;;35.75;35.25;14.20;51.30;;;;;;4861338;29;8801;-68
2021/10/14 08:35:24;;;;;;;;;37.75;36.25;14.50;50.70;;;;;;4862004;29;9686;-70
2021/10/14 08:37:50;;;;;;;;;35.50;34.50;14.40;49.70;;;;;;4875897;29;8940;-69
2021/10/14 08:40:16;;;;;;;;;35.00;33.67;14.60;49.70;;;;;;4861493;29;8959;-68
2021/10/14 08:42:43;;;;;;;;;41.50;38.75;14.80;49.20;;;;;;4861858;29;8833;-69
2021/10/14 08:45:11;;;;;;;;;41.00;37.00;14.80;48.20;;;;;;4861893;29;8798;-70
2021/10/14 08:47:39;;;;;;;;;47.25;42.00;15.20;48.30;;;;;;4861910;29;8813;-70
2021/10/14 08:50:06;;;;;;;;;38.33;33.67;15.60;47.80;;;;;;4861138;29;8785;-67
2021/10/14 08:52:32;;;;;;;;;34.33;33.33;16.00;46.50;;;;;;4860801;29;8841;-70
2021/10/14 08:54:58;;;;;;;;;32.00;31.67;16.20;45.40;;;;;;4863447;29;8773;-69
2021/10/14 08:57:24;;;;;;;;;36.33;34.67;16.30;45.60;;;;;;4864574;29;8816;-70
2021/10/14 08:59:50;;;;;;;;;35.33;34.33;16.50;45.50;;;;;;4864366;29;8798;-69
2021/10/14 09:02:18;;;;;;;;;29.33;29.33;16.50;44.50;;;;;;4864602;29;8793;-67
2021/10/14 09:04:53;;;;;;;;;30.33;30.33;16.20;45.00;;;;;;4864733;29;8931;-69
2021/10/14 09:07:20;;;;;;;;;33.33;32.00;16.50;45.00;;;;;;4864611;29;8792;-68
2021/10/14 09:09:47;;;;;;;;;32.00;32.00;16.80;44.30;;;;;;4864326;29;8860;-69
2021/10/14 09:12:16;;;;;;;;;34.00;32.67;16.80;43.10;;;;;;4864127;29;8856;-70
2021/10/14 09:15:05;;;;;;;;;36.33;33.67;16.80;43.40;;;;;;4864249;29;8901;-70
2021/10/14 09:17:37;;;;;;;;;32.00;31.67;16.60;43.50;;;;;;4864475;29;8787;-69
2021/10/14 09:20:29;;;;;;;;;29.00;29.00;16.30;43.80;;;;;;4863995;29;8916;-70
2021/10/14 09:22:57;;;;;;;;;30.33;30.33;16.40;43.80;;;;;;4864574;29;9691;-72
2021/10/14 09:25:29;;;;;;;;;30.67;30.67;16.20;43.60;;;;;;4864252;29;8798;-70
2021/10/14 09:28:18;;;;;;;;;31.33;31.33;16.00;44.20;;;;;;4863896;29;8843;-72
2021/10/14 09:30:49;;;;;;;;;38.00;35.00;15.70;44.40;;;;;;4863669;29;8794;-69
2021/10/14 09:33:37;;;;;;;;;29.00;29.00;15.90;45.30;;;;;;4863980;29;8805;-70
2021/10/14 09:36:15;;;;;;;;;33.00;33.00;16.30;44.70;;;;;;4863900;29;8806;-71
2021/10/14 09:38:43;;;;;;;;;33.00;32.33;16.60;44.00;;;;;;4864218;29;8821;-70
2021/10/14 09:41:11;;;;;;;;;35.67;34.33;16.80;44.00;;;;;;4864457;29;8956;-66
2021/10/14 09:43:38;;;;;;;;;34.67;33.67;16.80;43.70;;;;;;4864135;29;9469;-69
2021/10/14 09:46:04;;;;;;;;;35.33;34.67;16.80;44.00;;;;;;4863851;29;8805;-71
2021/10/14 09:48:31;;;;;;;;;34.33;32.67;16.80;44.20;;;;;;4863702;29;8825;-71
2021/10/14 09:50:57;;;;;;;;;33.67;32.67;17.00;43.70;;;;;;4863384;29;8909;-71
2021/10/14 09:53:25;;;;;;;;;25.33;25.00;17.00;42.90;;;;;;4863204;29;8801;-71
2021/10/14 09:55:53;;;;;;;;;25.33;25.33;17.00;41.30;;;;;;4863749;29;8820;-66
2021/10/14 09:58:22;;;;;;;;;31.33;31.33;16.50;39.80;;;;;;4863119;29;8794;-69
2021/10/14 10:00:48;;;;;;;;;37.00;35.00;16.40;41.60;;;;;;4862909;29;8915;-67
2021/10/14 10:03:17;;;;;;;;;29.67;29.67;16.50;42.40;;;;;;4862948;29;8832;-68
2021/10/14 10:05:49;;;;;;;;;42.00;37.33;16.30;42.20;;;;;;4862047;29;8785;-69
2021/10/14 10:08:36;;;;;;;;;39.00;36.00;15.90;43.00;;;;;;4861940;29;8793;-69
2021/10/14 10:11:23;;;;;;;;;29.33;28.33;15.70;43.70;;;;;;4862620;29;9537;-70
2021/10/14 10:13:54;;;;;;;;;26.00;26.00;15.50;45.00;;;;;;4862895;29;8797;-70
2021/10/14 10:16:26;;;;;;;;;28.00;28.00;15.10;44.90;;;;;;4862960;29;8816;-71
2021/10/14 10:18:56;;;;;;;;;26.00;26.00;15.20;45.40;;;;;;4862475;29;8916;-68
2021/10/14 10:21:31;;;;;;;;;28.33;28.33;15.30;45.00;;;;;;4862538;29;8829;-71
2021/10/14 10:24:31;;;;;;;;;30.33;30.33;15.60;44.50;;;;;;4863046;29;8832;-68
2021/10/14 10:26:58;;;;;;;;;29.00;29.00;16.40;43.70;;;;;;4832643;29;8904;-70
2021/10/14 10:29:26;;;;;;;;;24.67;24.67;16.70;42.80;;;;;;4862856;29;8836;-70
2021/10/14 10:31:53;;;;;;;;;28.00;28.00;16.50;40.80;;;;;;4863177;29;8861;-64
2021/10/14 10:35:01;;;;;;;;;26.00;26.00;16.60;41.70;;;;;;4862503;29;8801;-66
2021/10/14 10:39:58;;;;;;;;;25.00;25.00;20.30;32.80;;;;;;4862577;29;8922;-71
2021/10/14 10:42:42;;;;;;;;;24.67;24.67;19.60;35.30;;;;;;4862862;29;8828;-69
2021/10/14 10:45:22;;;;;;;;;27.33;27.00;18.70;36.20;;;;;;4862657;29;8801;-71
2021/10/14 10:47:54;;;;;;;;;29.67;29.00;18.10;38.60;;;;;;4862606;29;8821;-70
2021/10/14 10:50:22;;;;;;;;;26.67;26.67;17.80;38.30;;;;;;4862308;29;9663;-66
2021/10/14 10:53:00;;;;;;;;;26.00;26.00;17.50;38.90;;;;;;4862367;29;8841;-70
2021/10/14 10:55:26;;;;;;;;;24.33;24.33;17.80;39.10;;;;;;4862685;29;9527;-70
2021/10/14 10:57:54;;;;;;;;;20.00;19.33;17.50;39.40;;;;;;4862513;29;8817;-70
2021/10/14 11:00:22;;;;;;;;;22.33;22.33;16.70;40.10;;;;;;4862519;29;8813;-71
2021/10/14 11:03:14;;;;;;;;;27.33;27.33;17.20;41.60;;;;;;4862440;29;8824;-70
2021/10/14 11:05:54;;;;;;;;;34.00;33.33;17.80;40.20;;;;;;4862425;29;8820;-72
2021/10/14 11:08:25;;;;;;;;;25.33;25.33;17.90;39.20;;;;;;4862527;29;8790;-70
2021/10/14 11:11:12;;;;;;;;;25.67;25.67;17.90;39.90;;;;;;4862276;29;8937;-69
2021/10/14 11:13:41;;;;;;;;;32.00;31.67;18.10;39.70;;;;;;4862220;29;8893;-69
2021/10/14 11:16:12;;;;;;;;;24.67;24.67;18.30;38.60;;;;;;4862049;29;8798;-70
2021/10/14 11:18:43;;;;;;;;;25.33;25.33;18.80;37.80;;;;;;4861428;29;8924;-74
2021/10/14 11:21:16;;;;;;;;;22.00;22.00;18.80;36.90;;;;;;4862081;29;8817;-72
2021/10/14 11:23:43;;;;;;;;;23.00;23.00;18.40;36.40;;;;;;4860943;29;8829;-70
2021/10/14 11:26:43;;;;;;;;;24.33;24.33;18.20;36.70;;;;;;4862090;29;8789;-71
2021/10/14 11:29:22;;;;;;;;;25.33;25.33;17.80;37.50;;;;;;4859852;29;8793;-69
2021/10/14 11:32:01;;;;;;;;;30.00;30.00;17.50;39.20;;;;;;4862260;29;8909;-69
2021/10/14 11:34:28;;;;;;;;;31.33;31.00;17.40;39.50;;;;;;4862040;29;8907;-68
2021/10/14 11:36:59;;;;;;;;;24.67;24.67;16.90;39.40;;;;;;4862039;29;8808;-67
2021/10/14 11:39:45;;;;;;;;;27.67;27.67;16.40;42.20;;;;;;4862052;29;9495;-68
2021/10/14 11:42:19;;;;;;;;;29.00;29.00;16.20;41.70;;;;;;4862021;29;8817;-70
2021/10/14 11:44:55;;;;;;;;;26.00;26.00;16.20;42.20;;;;;;4862147;29;8794;-69
2021/10/14 11:47:22;;;;;;;;;20.33;20.33;16.30;41.70;;;;;;4862200;29;8770;-69
2021/10/14 11:50:02;;;;;;;;;22.33;22.33;16.10;41.70;;;;;;4861677;29;9501;-67
2021/10/14 11:52:28;;;;;;;;;22.33;22.33;16.20;41.80;;;;;;4862014;29;8837;-67
2021/10/14 11:55:03;;;;;;;;;21.00;20.33;16.20;41.40;;;;;;4861792;29;8836;-68
2021/10/14 11:57:30;;;;;;;;;24.00;23.33;16.10;41.70;;;;;;4862189;29;8777;-67
2021/10/14 11:59:57;;;;;;;;;31.67;29.00;16.20;42.50;;;;;;4861701;29;8786;-67
2021/10/14 12:02:24;;;;;;;;;26.33;26.33;16.40;42.80;;;;;;4862039;29;8853;-67
2021/10/14 12:04:55;;;;;;;;;33.33;32.33;16.20;42.40;;;;;;4862496;29;8793;-69
2021/10/14 12:07:26;;;;;;;;;34.33;33.33;16.30;42.40;;;;;;4861196;29;8805;-66
2021/10/14 12:09:53;;;;;;;;;30.67;30.67;16.50;42.20;;;;;;4860836;29;8841;-68
2021/10/14 12:12:24;;;;;;;;;19.33;19.33;16.80;41.00;;;;;;4861314;29;8876;-66
2021/10/14 12:15:00;;;;;;;;;32.33;30.67;17.30;39.80;;;;;;4861473;29;8809;-66
2021/10/14 12:17:37;;;;;;;;;26.67;26.67;18.40;37.90;;;;;;4861527;29;8801;-66
2021/10/14 12:20:13;;;;;;;;;27.00;26.33;18.30;36.80;;;;;;4861497;29;9456;-69
2021/10/14 12:22:46;;;;;;;;;28.00;27.67;18.10;37.40;;;;;;4861413;29;8797;-67
2021/10/14 12:25:12;;;;;;;;;28.33;28.33;17.60;38.40;;;;;;4861381;29;8833;-69
2021/10/14 12:27:51;;;;;;;;;28.00;28.00;17.40;39.20;;;;;;4861562;29;8869;-70
2021/10/14 12:30:34;;;;;;;;;30.33;30.33;17.10;40.30;;;;;;4864540;29;9346;-67
2021/10/14 12:33:12;;;;;;;;;33.00;32.00;17.10;40.90;;;;;;4865195;29;8830;-68
2021/10/14 12:36:00;;;;;;;;;30.33;30.33;17.10;40.80;;;;;;4864981;29;9506;-67
2021/10/14 12:38:38;;;;;;;;;29.00;29.00;17.00;40.20;;;;;;4865009;29;8807;-69
2021/10/14 12:41:13;;;;;;;;;32.33;32.33;16.90;40.30;;;;;;4865014;29;8856;-73
2021/10/14 12:44:03;;;;;;;;;25.00;25.00;16.80;40.50;;;;;;4864557;29;8827;-68
2021/10/14 12:49:20;;;;;;;;;37.00;33.33;17.10;39.60;;;;;;4864757;29;8865;-68
2021/10/14 12:51:48;;;;;;;;;34.00;32.33;17.30;39.70;;;;;;4864319;29;9015;-68